Time;durP1;ratioP1;P1;durP2;ratioP2;P2;SDS_P1;SDS_P2;PMS_P1;PMS_P2;Temp;Humidity;BMP_temperature;BMP_pressure;BME280_temperature;BME280_humidity;BME280_pressure;Samples;Min_cycle;Max_cycle;Signal;HPM_P1;HPM_P2
2021/03/09 00:01:36;;;;;;;60.17;29.53;;;;;;;;;;5032062;28;38679;-77
2021/03/09 00:04:02;;;;;;;65.93;28.70;;;;;;;;;;5023693;28;40527;-80
2021/03/09 00:06:28;;;;;;;55.07;27.93;;;;;;;;;;5027271;28;39429;-83
2021/03/09 00:08:55;;;;;;;55.43;28.50;;;;;;;;;;5028167;28;37386;-80
2021/03/09 00:11:21;;;;;;;56.93;27.90;;;;;;;;;;5020556;28;37709;-83
2021/03/09 00:13:47;;;;;;;64.83;29.70;;;;;;;;;;5028559;28;38899;-85
2021/03/09 00:16:14;;;;;;;57.80;28.87;;;;;;;;;;5027102;28;39106;-84
2021/03/09 00:18:40;;;;;;;59.47;28.30;;;;;;;;;;5032487;28;37986;-80
2021/03/09 00:21:07;;;;;;;65.20;29.70;;;;;;;;;;5015921;28;40173;-80
2021/03/09 00:23:33;;;;;;;63.83;30.23;;;;;;;;;;5034236;28;40779;-81
2021/03/09 00:25:59;;;;;;;62.60;29.43;;;;;;;;;;5025621;28;40047;-80
2021/03/09 00:28:26;;;;;;;66.30;30.53;;;;;;;;;;5027107;28;38544;-83
2021/03/09 00:30:52;;;;;;;67.03;31.67;;;;;;;;;;5019370;28;37101;-80
2021/03/09 00:33:19;;;;;;;70.80;33.30;;;;;;;;;;5032698;28;39345;-81
2021/03/09 00:35:45;;;;;;;69.07;33.07;;;;;;;;;;5019754;28;39148;-81
2021/03/09 00:38:11;;;;;;;75.27;32.60;;;;;;;;;;5023248;28;38586;-79
2021/03/09 00:40:38;;;;;;;62.07;30.83;;;;;;;;;;5033515;28;38233;-79
2021/03/09 00:43:04;;;;;;;68.90;33.53;;;;;;;;;;5032548;28;40083;-81
2021/03/09 00:45:31;;;;;;;73.27;34.23;;;;;;;;;;5029955;28;38037;-79
2021/03/09 00:47:58;;;;;;;70.87;34.40;;;;;;;;;;5056181;28;40291;-78
2021/03/09 00:50:24;;;;;;;77.80;35.13;;;;;;;;;;5016093;28;38013;-79
2021/03/09 00:52:51;;;;;;;72.80;34.37;;;;;;;;;;5038930;28;39203;-78
2021/03/09 00:55:17;;;;;;;81.97;35.80;;;;;;;;;;5041968;27;38770;-80
2021/03/09 00:57:44;;;;;;;76.20;34.77;;;;;;;;;;5043077;28;39360;-78
2021/03/09 01:00:10;;;;;;;78.83;35.90;;;;;;;;;;5035715;28;38049;-80
2021/03/09 01:02:37;;;;;;;78.27;35.97;;;;;;;;;;5041993;28;39762;-82
2021/03/09 01:05:03;;;;;;;78.13;36.00;;;;;;;;;;5049818;28;40413;-78
2021/03/09 01:07:29;;;;;;;75.70;34.97;;;;;;;;;;5042092;28;39937;-81
2021/03/09 01:09:56;;;;;;;74.70;36.07;;;;;;;;;;5042268;28;37430;-78
2021/03/09 01:12:22;;;;;;;77.53;35.93;;;;;;;;;;5049675;28;40230;-79
2021/03/09 01:14:48;;;;;;;80.80;34.67;;;;;;;;;;5059414;28;39371;-83
2021/03/09 01:17:15;;;;;;;74.53;36.10;;;;;;;;;;5048271;28;38498;-81
2021/03/09 01:19:41;;;;;;;70.90;33.90;;;;;;;;;;5037935;28;37653;-78
2021/03/09 01:22:08;;;;;;;71.17;34.33;;;;;;;;;;5046922;27;39310;-83
2021/03/09 01:24:34;;;;;;;74.87;34.93;;;;;;;;;;5054343;28;38522;-81
2021/03/09 01:27:00;;;;;;;73.53;34.97;;;;;;;;;;5058685;27;39184;-84
2021/03/09 01:29:27;;;;;;;78.50;34.93;;;;;;;;;;5051771;28;39453;-80
2021/03/09 01:31:53;;;;;;;72.63;33.40;;;;;;;;;;5061529;27;40876;-80
2021/03/09 01:34:20;;;;;;;69.80;33.83;;;;;;;;;;5038881;28;39569;-80
2021/03/09 01:36:46;;;;;;;77.80;34.87;;;;;;;;;;5038430;28;41225;-78
2021/03/09 01:39:13;;;;;;;80.63;35.67;;;;;;;;;;5042575;28;37798;-81
2021/03/09 01:41:39;;;;;;;84.57;36.90;;;;;;;;;;5049178;28;38993;-79
2021/03/09 01:44:06;;;;;;;78.93;34.83;;;;;;;;;;5048279;27;37141;-83
2021/03/09 01:46:33;;;;;;;79.73;36.10;;;;;;;;;;5035657;28;37575;-81
2021/03/09 01:48:59;;;;;;;88.67;39.73;;;;;;;;;;5039468;27;37513;-82
2021/03/09 01:51:26;;;;;;;90.10;38.53;;;;;;;;;;5016424;27;39161;-79
2021/03/09 01:53:52;;;;;;;78.20;35.87;;;;;;;;;;5048307;27;39572;-78
2021/03/09 01:56:19;;;;;;;87.57;38.37;;;;;;;;;;5042505;28;38439;-83
2021/03/09 01:58:49;;;;;;;75.77;37.00;;;;;;;;;;5051786;27;37248;-83
2021/03/09 02:01:17;;;;;;;86.33;36.27;;;;;;;;;;5040472;27;38967;-82
2021/03/09 02:03:44;;;;;;;90.50;38.03;;;;;;;;;;5043188;28;40303;-81
2021/03/09 02:06:12;;;;;;;76.17;37.57;;;;;;;;;;5042005;28;38318;-82
2021/03/09 02:08:39;;;;;;;77.90;37.67;;;;;;;;;;5046529;28;38660;-85
2021/03/09 02:11:09;;;;;;;92.43;39.73;;;;;;;;;;5032471;28;37547;-86
2021/03/09 02:13:43;;;;;;;89.27;38.40;;;;;;;;;;5053109;28;38612;-82
2021/03/09 02:16:48;;;;;;;81.60;38.20;;;;;;;;;;5018514;28;35921;-88
2021/03/09 02:19:33;;;;;;;88.10;37.87;;;;;;;;;;4978749;28;36393;-82
2021/03/09 02:22:20;;;;;;;82.57;37.37;;;;;;;;;;4997378;28;40620;-83
2021/03/09 02:24:59;;;;;;;91.90;39.77;;;;;;;;;;5036454;28;47121;-87
2021/03/09 02:27:43;;;;;;;85.67;38.60;;;;;;;;;;5050072;27;38272;-81
2021/03/09 02:30:16;;;;;;;86.13;40.37;;;;;;;;;;5044638;28;37110;-85
2021/03/09 02:32:44;;;;;;;87.35;42.15;;;;;;;;;;5040513;28;39784;-84
2021/03/09 02:35:12;;;;;;;83.63;39.83;;;;;;;;;;5057756;27;39283;-83
2021/03/09 02:37:40;;;;;;;94.23;41.17;;;;;;;;;;5056596;28;39768;-81
2021/03/09 02:40:10;;;;;;;78.40;39.03;;;;;;;;;;5038317;28;36971;-86
2021/03/09 02:42:38;;;;;;;88.97;39.40;;;;;;;;;;5038820;28;38586;-80
2021/03/09 02:45:05;;;;;;;91.30;43.77;;;;;;;;;;5034920;28;37493;-81
2021/03/09 02:47:33;;;;;;;89.50;40.47;;;;;;;;;;5044056;27;38491;-81
2021/03/09 02:49:59;;;;;;;104.33;45.60;;;;;;;;;;5029899;28;36860;-80
2021/03/09 02:52:26;;;;;;;90.97;43.10;;;;;;;;;;5053963;28;39871;-81
2021/03/09 02:54:53;;;;;;;111.37;47.53;;;;;;;;;;5038808;28;38380;-83
2021/03/09 02:57:20;;;;;;;122.23;49.53;;;;;;;;;;5043640;28;38274;-83
2021/03/09 02:59:46;;;;;;;96.23;44.23;;;;;;;;;;5060040;28;37919;-80
2021/03/09 03:02:13;;;;;;;100.87;45.67;;;;;;;;;;5032436;28;41332;-78
2021/03/09 03:04:45;;;;;;;101.93;44.90;;;;;;;;;;5050741;28;39067;-78
2021/03/09 03:07:12;;;;;;;107.77;47.77;;;;;;;;;;5018002;28;37934;-80
2021/03/09 03:09:39;;;;;;;90.20;45.47;;;;;;;;;;5028174;28;36924;-80
2021/03/09 03:12:06;;;;;;;124.10;50.67;;;;;;;;;;5019721;28;38570;-80
2021/03/09 03:14:33;;;;;;;114.23;49.17;;;;;;;;;;5025453;28;40467;-79
2021/03/09 03:17:02;;;;;;;100.50;46.20;;;;;;;;;;5017985;28;37174;-79
2021/03/09 03:19:28;;;;;;;92.37;45.67;;;;;;;;;;5056156;27;47480;-81
2021/03/09 03:21:56;;;;;;;92.63;44.53;;;;;;;;;;5025112;28;39425;-80
2021/03/09 03:24:23;;;;;;;133.13;55.63;;;;;;;;;;5026103;28;39354;-80
2021/03/09 03:26:49;;;;;;;133.33;56.93;;;;;;;;;;5028069;28;37242;-79
2021/03/09 03:29:16;;;;;;;124.43;55.37;;;;;;;;;;5023230;28;36976;-83
2021/03/09 03:31:42;;;;;;;117.87;52.00;;;;;;;;;;5040295;28;39304;-82
2021/03/09 03:34:09;;;;;;;113.37;52.47;;;;;;;;;;5026093;28;37212;-85
2021/03/09 03:36:36;;;;;;;103.07;49.17;;;;;;;;;;5022762;28;38914;-85
2021/03/09 03:39:02;;;;;;;98.93;49.50;;;;;;;;;;5033904;28;37826;-81
2021/03/09 03:41:29;;;;;;;118.57;54.27;;;;;;;;;;5055991;27;40799;-81
2021/03/09 03:43:55;;;;;;;112.07;52.57;;;;;;;;;;5029852;28;40348;-79
2021/03/09 03:46:22;;;;;;;111.50;52.90;;;;;;;;;;5024924;28;40236;-80
2021/03/09 03:48:48;;;;;;;132.73;57.77;;;;;;;;;;5026047;28;35919;-81
2021/03/09 03:51:16;;;;;;;128.70;55.60;;;;;;;;;;5049166;28;39689;-84
2021/03/09 03:53:51;;;;;;;119.83;55.33;;;;;;;;;;5016453;28;38413;-83
2021/03/09 03:56:17;;;;;;;117.93;54.80;;;;;;;;;;5017076;28;38587;-81
2021/03/09 03:58:45;;;;;;;147.40;61.77;;;;;;;;;;5017846;28;37761;-82
2021/03/09 04:01:13;;;;;;;110.90;53.40;;;;;;;;;;5033166;28;38335;-83
2021/03/09 04:03:39;;;;;;;134.33;55.60;;;;;;;;;;5035459;28;38988;-83
2021/03/09 04:06:06;;;;;;;123.47;55.97;;;;;;;;;;5017972;28;38776;-83
2021/03/09 04:08:34;;;;;;;123.20;55.07;;;;;;;;;;5013738;28;37372;-79
2021/03/09 04:11:01;;;;;;;122.83;54.00;;;;;;;;;;5027490;28;39993;-83
2021/03/09 04:13:28;;;;;;;104.80;50.97;;;;;;;;;;5023568;28;47120;-79
2021/03/09 04:15:55;;;;;;;111.13;50.83;;;;;;;;;;5049626;27;38306;-84
2021/03/09 04:18:23;;;;;;;113.97;50.83;;;;;;;;;;5036988;28;37445;-85
2021/03/09 04:20:49;;;;;;;127.53;57.30;;;;;;;;;;5052244;27;39165;-81
2021/03/09 04:23:16;;;;;;;92.77;45.47;;;;;;;;;;5042715;28;39221;-81
2021/03/09 04:25:43;;;;;;;110.17;49.10;;;;;;;;;;5046292;28;38942;-82
2021/03/09 04:28:10;;;;;;;95.10;45.03;;;;;;;;;;5036895;27;37433;-83
2021/03/09 04:30:37;;;;;;;86.23;44.20;;;;;;;;;;5023732;28;40301;-81
2021/03/09 04:33:03;;;;;;;94.10;45.90;;;;;;;;;;5023877;28;38819;-82
2021/03/09 04:35:30;;;;;;;80.80;41.47;;;;;;;;;;5012423;28;38954;-82
2021/03/09 04:37:57;;;;;;;75.73;39.60;;;;;;;;;;5026204;28;38198;-82
2021/03/09 04:40:23;;;;;;;83.83;41.97;;;;;;;;;;5020536;28;41314;-80
2021/03/09 04:42:50;;;;;;;86.87;41.87;;;;;;;;;;5024948;28;37650;-84
2021/03/09 04:45:16;;;;;;;72.10;39.50;;;;;;;;;;5023191;28;38746;-81
2021/03/09 04:47:43;;;;;;;74.63;39.87;;;;;;;;;;5027499;28;37875;-80
2021/03/09 04:50:12;;;;;;;75.87;41.00;;;;;;;;;;5017305;28;39414;-78
2021/03/09 04:52:38;;;;;;;80.80;41.60;;;;;;;;;;5021479;28;39507;-80
2021/03/09 04:55:05;;;;;;;84.97;43.50;;;;;;;;;;5022099;28;38035;-82
2021/03/09 04:57:37;;;;;;;84.20;44.57;;;;;;;;;;5020062;28;35723;-81
2021/03/09 05:00:07;;;;;;;79.33;42.07;;;;;;;;;;5012900;28;38512;-78
2021/03/09 05:02:33;;;;;;;84.57;43.60;;;;;;;;;;5025478;28;39796;-79
2021/03/09 05:05:00;;;;;;;81.77;42.43;;;;;;;;;;5021643;28;36851;-79
2021/03/09 05:07:27;;;;;;;78.00;42.03;;;;;;;;;;5021516;28;37995;-82
2021/03/09 05:09:53;;;;;;;74.07;40.70;;;;;;;;;;5020163;28;39377;-78
2021/03/09 05:12:19;;;;;;;76.47;41.97;;;;;;;;;;5026137;28;38662;-79
2021/03/09 05:14:46;;;;;;;72.93;39.90;;;;;;;;;;5027162;28;38431;-84
2021/03/09 05:17:12;;;;;;;77.17;38.53;;;;;;;;;;5056565;28;37357;-78
2021/03/09 05:19:39;;;;;;;100.23;46.67;;;;;;;;;;5022360;28;39679;-81
2021/03/09 05:22:05;;;;;;;104.53;46.30;;;;;;;;;;5026357;28;39706;-80
2021/03/09 05:24:32;;;;;;;68.77;38.63;;;;;;;;;;5017769;28;39106;-80
2021/03/09 05:26:59;;;;;;;74.10;40.67;;;;;;;;;;5032786;28;36057;-81
2021/03/09 05:29:25;;;;;;;81.43;41.87;;;;;;;;;;5037319;28;39534;-80
2021/03/09 05:31:51;;;;;;;67.43;38.67;;;;;;;;;;5024206;28;38660;-82
2021/03/09 05:34:18;;;;;;;71.63;38.17;;;;;;;;;;5033754;28;39679;-79
2021/03/09 05:36:44;;;;;;;71.23;39.93;;;;;;;;;;5022046;28;38789;-82
2021/03/09 05:39:10;;;;;;;69.83;38.13;;;;;;;;;;5023105;28;39067;-80
2021/03/09 05:41:38;;;;;;;74.40;39.10;;;;;;;;;;5027793;28;39157;-79
2021/03/09 05:44:04;;;;;;;58.73;32.97;;;;;;;;;;5029718;28;39974;-79
2021/03/09 05:46:31;;;;;;;61.00;30.93;;;;;;;;;;5019936;28;37353;-82
2021/03/09 05:48:58;;;;;;;71.20;34.83;;;;;;;;;;5020000;28;39997;-79
2021/03/09 05:51:24;;;;;;;58.43;32.67;;;;;;;;;;5021810;28;38773;-82
2021/03/09 05:53:51;;;;;;;56.30;29.33;;;;;;;;;;5022474;28;38223;-78
2021/03/09 05:56:17;;;;;;;55.57;29.73;;;;;;;;;;5022930;28;36483;-79
2021/03/09 05:58:44;;;;;;;59.97;29.30;;;;;;;;;;5024406;28;38381;-80
2021/03/09 06:01:11;;;;;;;69.50;31.43;;;;;;;;;;5032400;28;39241;-83
2021/03/09 06:03:38;;;;;;;64.10;31.80;;;;;;;;;;5024760;28;38147;-83
2021/03/09 06:06:04;;;;;;;59.13;30.83;;;;;;;;;;5025715;28;37715;-81
2021/03/09 06:08:31;;;;;;;56.47;28.70;;;;;;;;;;5024081;28;39366;-84
2021/03/09 06:11:17;;;;;;;49.77;26.30;;;;;;;;;;5022439;28;39015;-81
2021/03/09 06:13:43;;;;;;;57.97;27.17;;;;;;;;;;5009993;28;46942;-82
2021/03/09 06:16:10;;;;;;;54.47;24.50;;;;;;;;;;5016461;28;36798;-79
2021/03/09 06:18:37;;;;;;;45.97;25.90;;;;;;;;;;5024772;28;38574;-80
2021/03/09 06:21:13;;;;;;;56.90;26.27;;;;;;;;;;5019899;28;39126;-78
2021/03/09 06:23:40;;;;;;;51.07;24.90;;;;;;;;;;5017569;28;39416;-79
2021/03/09 06:26:26;;;;;;;53.47;24.80;;;;;;;;;;5018847;28;36523;-78
2021/03/09 06:29:08;;;;;;;53.43;27.30;;;;;;;;;;5023656;28;39623;-80
2021/03/09 06:31:34;;;;;;;49.33;25.73;;;;;;;;;;5016929;28;47109;-80
2021/03/09 06:34:20;;;;;;;59.40;27.17;;;;;;;;;;5022084;28;39779;-80
2021/03/09 06:37:02;;;;;;;55.80;26.70;;;;;;;;;;5022317;28;48974;-84
2021/03/09 06:39:41;;;;;;;56.28;27.42;;;;;;;;;;5040544;28;47978;-84
2021/03/09 06:42:08;;;;;;;58.43;27.13;;;;;;;;;;5032732;28;39592;-77
2021/03/09 06:44:35;;;;;;;48.73;25.47;;;;;;;;;;5030760;28;36491;-80
2021/03/09 06:47:01;;;;;;;53.70;23.50;;;;;;;;;;5023674;28;37010;-80
2021/03/09 06:49:28;;;;;;;48.80;22.00;;;;;;;;;;5018130;28;48736;-79
2021/03/09 06:51:54;;;;;;;49.33;23.03;;;;;;;;;;5019361;28;41132;-78
2021/03/09 06:54:20;;;;;;;37.37;20.03;;;;;;;;;;5019159;28;38489;-79
2021/03/09 06:56:49;;;;;;;47.03;21.13;;;;;;;;;;5011488;28;37451;-80
2021/03/09 06:59:18;;;;;;;37.53;19.50;;;;;;;;;;5038678;28;39549;-80
2021/03/09 07:02:01;;;;;;;38.37;18.73;;;;;;;;;;5020383;28;39072;-78
2021/03/09 07:04:28;;;;;;;39.37;18.77;;;;;;;;;;5011265;28;47397;-79
2021/03/09 07:06:54;;;;;;;45.27;21.70;;;;;;;;;;5009510;28;35912;-77
2021/03/09 07:09:21;;;;;;;43.13;21.00;;;;;;;;;;5009315;28;40986;-79
2021/03/09 07:11:49;;;;;;;42.33;21.60;;;;;;;;;;5011477;28;38657;-76
2021/03/09 07:14:15;;;;;;;40.43;20.37;;;;;;;;;;5033063;28;38896;-79
2021/03/09 07:16:48;;;;;;;41.90;19.20;;;;;;;;;;5021820;28;38676;-79
2021/03/09 07:19:16;;;;;;;37.13;18.40;;;;;;;;;;5022234;28;38364;-79
2021/03/09 07:21:45;;;;;;;40.80;20.37;;;;;;;;;;5021054;28;37368;-79
2021/03/09 07:24:13;;;;;;;39.87;17.97;;;;;;;;;;5018247;28;38640;-76
2021/03/09 07:26:41;;;;;;;38.97;16.47;;;;;;;;;;5023297;28;37495;-75
2021/03/09 07:29:12;;;;;;;38.03;16.13;;;;;;;;;;5018354;28;37507;-78
2021/03/09 07:31:41;;;;;;;32.33;14.23;;;;;;;;;;5005002;28;47315;-77
2021/03/09 07:34:09;;;;;;;33.87;14.57;;;;;;;;;;5015152;28;38476;-75
2021/03/09 07:36:38;;;;;;;27.13;13.23;;;;;;;;;;5019799;28;37303;-73
2021/03/09 07:39:05;;;;;;;34.23;15.00;;;;;;;;;;5032673;28;38323;-78
2021/03/09 07:41:31;;;;;;;29.23;11.90;;;;;;;;;;5020902;28;38692;-78
2021/03/09 07:43:59;;;;;;;33.93;11.93;;;;;;;;;;5018298;28;38262;-76
2021/03/09 07:46:26;;;;;;;27.70;12.23;;;;;;;;;;5019498;28;37370;-78
2021/03/09 07:48:53;;;;;;;20.10;8.10;;;;;;;;;;5016050;28;38526;-76
2021/03/09 07:51:21;;;;;;;18.33;8.47;;;;;;;;;;5022939;28;37336;-78
2021/03/09 07:54:07;;;;;;;18.53;6.97;;;;;;;;;;5020655;28;39413;-78
2021/03/09 07:56:33;;;;;;;23.60;7.33;;;;;;;;;;5020853;28;47869;-75
2021/03/09 07:59:08;;;;;;;19.47;7.17;;;;;;;;;;5021770;28;38413;-75
2021/03/09 08:01:47;;;;;;;19.57;6.93;;;;;;;;;;5022566;28;46943;-75
2021/03/09 08:04:13;;;;;;;15.53;5.70;;;;;;;;;;5028349;28;38914;-74
2021/03/09 08:06:44;;;;;;;20.13;6.90;;;;;;;;;;5023007;28;37564;-75
2021/03/09 08:09:29;;;;;;;19.07;6.77;;;;;;;;;;5030248;28;40945;-75
2021/03/09 08:11:55;;;;;;;13.70;6.27;;;;;;;;;;5050103;28;38998;-74
2021/03/09 08:14:22;;;;;;;16.23;6.03;;;;;;;;;;5018174;28;38185;-74
2021/03/09 08:16:50;;;;;;;12.13;5.97;;;;;;;;;;5014954;28;37765;-74
2021/03/09 08:19:25;;;;;;;7.67;4.23;;;;;;;;;;5022061;28;39637;-77
2021/03/09 08:21:53;;;;;;;17.53;5.57;;;;;;;;;;5018078;28;38854;-78
2021/03/09 08:24:20;;;;;;;19.53;5.87;;;;;;;;;;5033448;28;38346;-74
2021/03/09 08:26:48;;;;;;;15.83;5.30;;;;;;;;;;5024722;28;37548;-77
2021/03/09 08:29:30;;;;;;;15.20;5.70;;;;;;;;;;5020190;28;39205;-76
2021/03/09 08:32:15;;;;;;;16.30;5.63;;;;;;;;;;5037306;28;38290;-77
2021/03/09 08:34:41;;;;;;;16.53;5.90;;;;;;;;;;5021750;28;49609;-76
2021/03/09 08:37:26;;;;;;;16.40;6.60;;;;;;;;;;5024988;28;37356;-79
2021/03/09 08:40:10;;;;;;;22.43;6.70;;;;;;;;;;5048315;27;40549;-77
2021/03/09 08:42:55;;;;;;;10.67;5.33;;;;;;;;;;5019661;28;48386;-76
2021/03/09 08:45:41;;;;;;;14.90;4.73;;;;;;;;;;5022550;28;37912;-77
2021/03/09 08:48:09;;;;;;;8.03;3.63;;;;;;;;;;5020730;28;36195;-77
2021/03/09 08:50:41;;;;;;;8.23;4.10;;;;;;;;;;5019197;28;38904;-78
2021/03/09 08:53:26;;;;;;;9.32;4.00;;;;;;;;;;5039351;28;39949;-76
2021/03/09 08:55:56;;;;;;;8.80;4.10;;;;;;;;;;5044956;27;38773;-76
2021/03/09 08:58:22;;;;;;;7.50;4.27;;;;;;;;;;5021591;28;37015;-75
2021/03/09 09:00:49;;;;;;;7.63;3.80;;;;;;;;;;5024116;28;40121;-79
2021/03/09 09:03:31;;;;;;;11.00;3.20;;;;;;;;;;5022136;28;38323;-77
2021/03/09 09:05:58;;;;;;;6.75;2.40;;;;;;;;;;5017634;28;39301;-76
2021/03/09 09:08:24;;;;;;;3.63;2.20;;;;;;;;;;5030494;28;38410;-76
2021/03/09 09:10:51;;;;;;;4.10;2.27;;;;;;;;;;5024487;28;39314;-76
2021/03/09 09:13:26;;;;;;;3.40;2.67;;;;;;;;;;5034636;28;39012;-75
2021/03/09 09:15:52;;;;;;;5.07;2.10;;;;;;;;;;5023652;28;39445;-77
2021/03/09 09:18:20;;;;;;;5.30;2.40;;;;;;;;;;5021721;28;36318;-74
2021/03/09 09:20:47;;;;;;;7.43;2.20;;;;;;;;;;5051235;28;39325;-77
2021/03/09 09:23:15;;;;;;;3.27;1.60;;;;;;;;;;5047269;28;37492;-77
2021/03/09 09:25:46;;;;;;;4.40;1.80;;;;;;;;;;5070808;28;36848;-81
2021/03/09 09:28:30;;;;;;;2.77;1.47;;;;;;;;;;5053679;28;37154;-77
2021/03/09 09:30:58;;;;;;;2.60;1.60;;;;;;;;;;5050333;27;38826;-77
2021/03/09 09:33:25;;;;;;;3.93;2.10;;;;;;;;;;5020438;28;38932;-76
2021/03/09 09:35:51;;;;;;;3.93;1.50;;;;;;;;;;5036440;28;37383;-80
2021/03/09 09:38:19;;;;;;;3.70;1.70;;;;;;;;;;5040353;28;38384;-75
2021/03/09 09:40:50;;;;;;;1.50;1.30;;;;;;;;;;5039792;28;37851;-76
2021/03/09 09:43:21;;;;;;;3.10;1.50;;;;;;;;;;5040108;28;38525;-76
2021/03/09 09:45:58;;;;;;;3.53;1.40;;;;;;;;;;5040435;28;37730;-78
2021/03/09 09:48:32;;;;;;;3.63;1.40;;;;;;;;;;5040697;28;38776;-78
2021/03/09 09:51:03;;;;;;;2.07;1.10;;;;;;;;;;5042940;28;39834;-74
2021/03/09 09:53:36;;;;;;;2.03;1.10;;;;;;;;;;5043627;28;47400;-77
2021/03/09 09:56:05;;;;;;;3.23;1.40;;;;;;;;;;5041338;28;39784;-78
2021/03/09 09:58:49;;;;;;;2.73;1.13;;;;;;;;;;5058888;28;37127;-78
2021/03/09 10:01:17;;;;;;;5.43;1.10;;;;;;;;;;5030289;28;39142;-76
2021/03/09 10:03:56;;;;;;;3.17;1.27;;;;;;;;;;5052299;28;38855;-75
2021/03/09 10:06:24;;;;;;;2.93;1.60;;;;;;;;;;5040292;28;37812;-74
2021/03/09 10:08:51;;;;;;;5.07;1.67;;;;;;;;;;5033808;28;37606;-76
2021/03/09 10:11:17;;;;;;;2.57;1.33;;;;;;;;;;5037490;28;40393;-76
2021/03/09 10:13:44;;;;;;;2.87;1.60;;;;;;;;;;5040350;28;38768;-75
2021/03/09 10:16:10;;;;;;;3.90;1.57;;;;;;;;;;5031997;28;37991;-74
2021/03/09 10:18:37;;;;;;;2.33;1.40;;;;;;;;;;5024920;28;37985;-74
2021/03/09 10:21:05;;;;;;;3.77;1.50;;;;;;;;;;5038878;28;40597;-78
2021/03/09 10:23:32;;;;;;;2.47;0.87;;;;;;;;;;5052499;28;39796;-77
2021/03/09 10:26:02;;;;;;;2.93;0.90;;;;;;;;;;5023219;28;39170;-76
2021/03/09 10:28:29;;;;;;;2.13;0.70;;;;;;;;;;5028439;28;47479;-77
2021/03/09 10:30:55;;;;;;;3.63;0.90;;;;;;;;;;5017728;28;38102;-79
2021/03/09 10:33:22;;;;;;;1.07;0.70;;;;;;;;;;5020987;28;38689;-79
2021/03/09 10:36:10;;;;;;;1.20;0.60;;;;;;;;;;5035983;28;39568;-77
2021/03/09 10:38:36;;;;;;;2.40;0.70;;;;;;;;;;5018631;28;49941;-81
2021/03/09 10:41:03;;;;;;;1.90;0.53;;;;;;;;;;5042420;28;39840;-78
2021/03/09 10:43:38;;;;;;;4.33;1.13;;;;;;;;;;5030346;28;39432;-76
2021/03/09 10:46:05;;;;;;;2.10;0.60;;;;;;;;;;5017739;28;41782;-77
2021/03/09 10:48:31;;;;;;;1.13;0.43;;;;;;;;;;5036432;28;37979;-76
2021/03/09 10:50:57;;;;;;;3.63;0.40;;;;;;;;;;5021267;28;39620;-78
2021/03/09 10:53:24;;;;;;;1.60;0.60;;;;;;;;;;5029548;28;38095;-78
2021/03/09 10:55:51;;;;;;;1.60;0.40;;;;;;;;;;5018376;28;38438;-77
2021/03/09 10:58:17;;;;;;;1.33;0.63;;;;;;;;;;5034347;28;38667;-75
2021/03/09 11:00:44;;;;;;;2.07;0.50;;;;;;;;;;5031044;28;40074;-76
2021/03/09 11:03:10;;;;;;;1.07;0.30;;;;;;;;;;5022917;28;38560;-75
2021/03/09 11:05:37;;;;;;;1.47;0.20;;;;;;;;;;5020588;28;38241;-75
2021/03/09 11:08:03;;;;;;;1.17;0.20;;;;;;;;;;5037244;28;37700;-75
2021/03/09 11:10:29;;;;;;;0.17;0.10;;;;;;;;;;5024448;28;38741;-75
2021/03/09 11:12:56;;;;;;;1.40;0.23;;;;;;;;;;5019752;28;39341;-81
2021/03/09 11:15:22;;;;;;;1.37;0.20;;;;;;;;;;5017478;28;39181;-74
2021/03/09 11:17:48;;;;;;;0.67;0.17;;;;;;;;;;5019740;28;37205;-77
2021/03/09 11:20:15;;;;;;;1.13;0.20;;;;;;;;;;5017257;28;37773;-84
2021/03/09 11:22:42;;;;;;;0.10;0.10;;;;;;;;;;5036737;28;38017;-76
2021/03/09 11:25:08;;;;;;;2.93;0.33;;;;;;;;;;5036197;28;39886;-75
2021/03/09 11:27:35;;;;;;;0.20;0.10;;;;;;;;;;5042600;28;38510;-76
2021/03/09 11:30:01;;;;;;;0.43;0.20;;;;;;;;;;5039409;28;37912;-75
2021/03/09 11:32:28;;;;;;;0.30;0.17;;;;;;;;;;5038640;28;39596;-77
2021/03/09 11:34:54;;;;;;;1.43;0.20;;;;;;;;;;5038475;28;39382;-75
2021/03/09 11:37:20;;;;;;;2.77;0.23;;;;;;;;;;5018349;28;37419;-77
2021/03/09 11:39:47;;;;;;;1.13;0.20;;;;;;;;;;5019972;28;39282;-75
2021/03/09 11:42:13;;;;;;;1.33;0.20;;;;;;;;;;5022775;28;39984;-76
2021/03/09 11:44:40;;;;;;;1.30;0.20;;;;;;;;;;5037149;28;36484;-75
2021/03/09 11:47:06;;;;;;;1.80;0.20;;;;;;;;;;5015014;28;36805;-75
2021/03/09 11:49:33;;;;;;;0.87;0.20;;;;;;;;;;5022931;28;39745;-74
2021/03/09 11:51:59;;;;;;;0.37;0.20;;;;;;;;;;5037573;28;39892;-74
2021/03/09 11:54:26;;;;;;;0.87;0.30;;;;;;;;;;5015191;28;38398;-78
2021/03/09 11:56:52;;;;;;;1.53;0.40;;;;;;;;;;5020935;28;36724;-75
2021/03/09 11:59:18;;;;;;;2.33;0.20;;;;;;;;;;5036296;28;40725;-76
2021/03/09 12:01:45;;;;;;;1.63;0.50;;;;;;;;;;5015163;28;37792;-75
2021/03/09 12:04:11;;;;;;;1.47;0.50;;;;;;;;;;5029892;28;39301;-75
2021/03/09 12:06:37;;;;;;;1.80;0.20;;;;;;;;;;5032058;28;37163;-75
2021/03/09 12:09:04;;;;;;;0.47;0.20;;;;;;;;;;5015407;28;39048;-75
2021/03/09 12:11:30;;;;;;;0.87;0.23;;;;;;;;;;5023850;28;38937;-75
2021/03/09 12:13:57;;;;;;;4.63;0.30;;;;;;;;;;5026672;28;39836;-73
2021/03/09 12:16:23;;;;;;;1.70;0.30;;;;;;;;;;5022930;28;37927;-75
2021/03/09 12:18:49;;;;;;;1.70;0.30;;;;;;;;;;5021499;28;40646;-74
2021/03/09 12:21:16;;;;;;;0.80;0.40;;;;;;;;;;5021607;28;40145;-76
2021/03/09 12:23:42;;;;;;;1.33;0.20;;;;;;;;;;5018610;28;38436;-76
2021/03/09 12:26:09;;;;;;;1.00;0.20;;;;;;;;;;5017130;28;36932;-77
2021/03/09 12:28:35;;;;;;;0.40;0.30;;;;;;;;;;5031966;28;39969;-75
2021/03/09 12:31:02;;;;;;;0.30;0.20;;;;;;;;;;5024242;28;38867;-75
2021/03/09 12:33:29;;;;;;;1.33;0.20;;;;;;;;;;5047648;28;47425;-74
2021/03/09 12:35:55;;;;;;;1.30;0.17;;;;;;;;;;5054279;28;37081;-74
2021/03/09 12:38:21;;;;;;;1.73;0.30;;;;;;;;;;5055197;28;38090;-76
2021/03/09 12:40:48;;;;;;;1.20;0.30;;;;;;;;;;5066188;27;37146;-74
2021/03/09 12:43:14;;;;;;;0.50;0.30;;;;;;;;;;5025641;28;39613;-75
2021/03/09 12:45:44;;;;;;;2.90;0.25;;;;;;;;;;5040961;28;37045;-74
2021/03/09 12:48:10;;;;;;;1.35;0.20;;;;;;;;;;5042375;28;38347;-73
2021/03/09 12:50:36;;;;;;;0.83;0.10;;;;;;;;;;5040958;28;39733;-73
2021/03/09 12:53:03;;;;;;;0.87;0.30;;;;;;;;;;5043689;28;39797;-74
2021/03/09 12:55:30;;;;;;;1.33;0.10;;;;;;;;;;5048265;27;36016;-74
2021/03/09 12:57:57;;;;;;;1.23;0.30;;;;;;;;;;5038598;28;37708;-74
2021/03/09 13:00:23;;;;;;;1.30;0.20;;;;;;;;;;5041320;28;39428;-75
2021/03/09 13:02:50;;;;;;;1.97;0.30;;;;;;;;;;5059037;27;38911;-74
2021/03/09 13:05:16;;;;;;;0.30;0.30;;;;;;;;;;5036613;28;35208;-75
2021/03/09 13:07:43;;;;;;;2.83;0.30;;;;;;;;;;5039594;28;38566;-75
2021/03/09 13:10:10;;;;;;;2.47;0.20;;;;;;;;;;5041888;28;37567;-75
2021/03/09 13:12:36;;;;;;;0.30;0.10;;;;;;;;;;5040994;28;37916;-74
2021/03/09 13:15:03;;;;;;;0.50;0.30;;;;;;;;;;5053619;27;37148;-75
2021/03/09 13:17:30;;;;;;;0.97;0.20;;;;;;;;;;5032987;28;39726;-74
2021/03/09 13:19:56;;;;;;;1.00;0.20;;;;;;;;;;5055785;27;38958;-76
2021/03/09 13:22:22;;;;;;;2.33;0.20;;;;;;;;;;5036046;28;38820;-77
2021/03/09 13:24:49;;;;;;;0.70;0.10;;;;;;;;;;5045225;28;37284;-74
2021/03/09 13:27:15;;;;;;;2.00;0.20;;;;;;;;;;5054766;27;39389;-75
2021/03/09 13:29:42;;;;;;;0.30;0.10;;;;;;;;;;5053791;27;39141;-76
2021/03/09 13:32:08;;;;;;;1.37;0.20;;;;;;;;;;5048856;27;39813;-74
2021/03/09 13:34:34;;;;;;;1.03;0.20;;;;;;;;;;5046567;27;37662;-75
2021/03/09 13:37:01;;;;;;;1.30;0.20;;;;;;;;;;5051883;27;39953;-76
2021/03/09 13:39:28;;;;;;;0.10;0.10;;;;;;;;;;5039018;28;47205;-75
2021/03/09 13:41:54;;;;;;;0.40;0.20;;;;;;;;;;5053459;27;39536;-76
2021/03/09 13:44:21;;;;;;;1.43;1.03;;;;;;;;;;5048321;27;38497;-75
2021/03/09 13:46:47;;;;;;;2.20;0.30;;;;;;;;;;5046598;27;38995;-74
2021/03/09 13:49:13;;;;;;;0.47;0.20;;;;;;;;;;5051967;27;40546;-75
2021/03/09 13:51:40;;;;;;;1.07;0.20;;;;;;;;;;5040442;28;39027;-74
2021/03/09 13:54:06;;;;;;;0.93;0.20;;;;;;;;;;5047192;28;38629;-74
2021/03/09 13:56:33;;;;;;;1.57;0.23;;;;;;;;;;5025370;28;40535;-75
2021/03/09 13:58:59;;;;;;;2.33;0.43;;;;;;;;;;5018878;28;39327;-76
2021/03/09 14:01:26;;;;;;;1.37;0.20;;;;;;;;;;5031626;28;40363;-77
2021/03/09 14:03:52;;;;;;;0.30;0.30;;;;;;;;;;5033930;28;36925;-74
2021/03/09 14:06:18;;;;;;;1.20;0.30;;;;;;;;;;5031116;28;40088;-75
2021/03/09 14:08:45;;;;;;;3.50;0.90;;;;;;;;;;5023512;28;38748;-74
2021/03/09 14:11:11;;;;;;;2.57;0.77;;;;;;;;;;5027247;28;37550;-75
2021/03/09 14:13:38;;;;;;;0.57;0.30;;;;;;;;;;5026917;28;37867;-75
2021/03/09 14:16:04;;;;;;;3.30;1.03;;;;;;;;;;5021270;28;39746;-75
2021/03/09 14:18:32;;;;;;;0.67;0.30;;;;;;;;;;5021157;28;38440;-73
2021/03/09 14:21:00;;;;;;;1.37;0.50;;;;;;;;;;5029212;28;38293;-74
2021/03/09 14:23:27;;;;;;;2.33;0.40;;;;;;;;;;5040732;28;47366;-80
2021/03/09 14:25:53;;;;;;;1.77;0.40;;;;;;;;;;5023199;28;38674;-77
2021/03/09 14:28:19;;;;;;;2.47;0.70;;;;;;;;;;5016968;28;38187;-78
2021/03/09 14:30:46;;;;;;;2.17;0.40;;;;;;;;;;5023706;28;38157;-78
2021/03/09 14:33:12;;;;;;;0.37;0.27;;;;;;;;;;5038585;28;36038;-81